Airfield :
LOGIN :

Register | Disclaimer

   EN    FR    IT 

 










Legend :    VFR   Marginal VFR   IFR   Intensive IFR   Very Intensive IFR
Visi :
Ceiling :
>= 8 km
>= 3000ft
5 to 8 km
1000 to 3000 ft
1500m to 5 km
500 to 1000 ft
800 to 1500m
200 to 500 ft
< 800m
< 200 ft
Symbols :   Thunderstorms  Fog  Heavy snow  Heavy precipitations  Wind > 20 kt
SIGMETs :     Misc.  Thunderstorms  Icing  Turbulence  Mountain Waves  Volcanic Ashes







- Airport Elevation : 1416 ft
- IATA code : ZRH


LSZH - Zurich

CURRENT METAR :
  • 141820Z 16009KT 7000 -RA FEW004 SCT012 BKN022 02/01 Q0998 TEMPO 4500 -RASN BKN012

EXPIRED METARs :
  • 141750Z 16013KT 8000 SCT004 SCT016 BKN028 02/01 Q0999 TEMPO 4500 -RASN BKN009
  • 141720Z 16007KT 8000 -RA SCT005 SCT010 BKN028 02/01 Q1000 TEMPO 4500 -RASN BKN009
  • 141650Z 18009KT 150V210 8000 RA FEW006 SCT016 BKN024 02/01 Q1000 TEMPO 4500 -RASN
  • 141620Z 20007KT 170V230 9000 RA FEW010 SCT018 BKN024 03/01 Q1001 TEMPO 4500 -RASN
  • 141550Z 18006KT 9999 -RA FEW018 SCT022 BKN035 03/01 Q1002 TEMPO RA

TAF TAF LSZH
Valid from the 14 at 18:00 until the 16 at 00:00 UTC


141725Z 1418/1524 18009KT 9999 RA FEW006 SCT015 BKN025 TX07/1513Z TN01/1506Z
TEMPO 1418/1506 25015G25KT 2000 SHSNRA BKN008
PROB30
TEMPO 1421/1506 1000 SHSN BKN005
BECMG 1503/1506 20005KT NSW
PROB30
TEMPO 1500/1507 3000 TSGS FEW015CB
TEMPO 1510/1518 21012KT
ATIS : +41 43 816 2295 (DEP) +41 43 816 2294 (ARR)
No reported NOTAMs for that airfield.
1 SIGMET reported for the Switzerland FIR (LSAS) :
 
Severe turbulence
LSAS SIGMET 4 VALID 141705/141900 LSZH
LSAS SWITZERLAND FIR SEV TURB FCST NW OF LINE N4546 E00708 - N4736 E00733 3000FT/FL070 STNR NC=



MET'MAP, your aeronautical weather chart ! - Copyright ORBIFLY December 2007 - Disclaimer

ORBIFLY MET'MAP TEAM :

Programming & Development : Alexandra Zaïnal
Concept & Development : Baudouin d'Aumeries
Co-Development & Prog : Marc-Olivier Méhu
Technical & hardware support : Manuel Goepfert

Contact : metmap@orbifly.com




SOURCES & CREDITS :

   NOAA